THUNDERSTORM

Not for real navigation. The accuracy of this data is not assured See disclaimer for more information



ICAO NAME COUNTRY WIND Kt GUST Kt VIS m TEMP/DEW C BARO METAR
KHWV SHIRLEY BROOKHAVEN AIRPORT NY United States 3 0 400 12/12 29.81 KHWV 251256Z AUTO 15003KT 0.25SM FG VV002 12/12 A2981 RMK AO2 SLP096 T01170117 TS
PAEN KENAI MUNICIPAL AIRPORT AK United States 5 0 800 -12/-13 30.56 PAEN 251253Z AUTO 01005KT 0.5SM FZFG VV002 M12/M13 A3056 RMK AO2 SLP353 I1001 T11221128 TS
KMMK MERIDEN MARKHAM MUNICIPAL AIRP CT United States 6 0 800 13/12 29.81 KMMK 251305Z AUTO 18006KT 0.5SM FG VV003 13/12 A2981 RMK AO2 T01280117 TS
PATK TALKEETNA AIRPORT AK United States 0 0 800 -4/-6 30.54 PATK 251253Z AUTO 00000KT 0.5SM FZFG VV003 M04/M06 A3054 RMK AO2 SLP348 I1001 T10441056 TS $
SECO 3 0 1000 23/23 29.94 SECO 251300Z 04003KT 010V070 1000 TSRA SCT006 SCT016CB OVC070 23/23 Q1014

Show more